Impacts TAF Board INFO
FOR SITUATIONAL AWARENESS. NOT TO BE USED FOR FLIGHT PLANNING PURPOSES.
IDs:

KIAD - Washington/Dulles In, VA, US

Issued at 1720 UTC 18 Jan 2018
Updated at 1725 UTC 18 Jan 2018
Potential Impact None Slight Moderate High
Time1652Z 18/18Z 18/19Z 18/20Z 18/21Z 18/22Z 18/23Z 19/00Z 19/01Z 19/02Z 19/03Z 19/04Z 19/05Z 19/06Z>>
Type OBS PRVL PRVL PRVL PRVL PRVL PRVL PRVL PRVL PRVL PRVL PRVL PRVL PRVL
VIS 10 >6 >6 >6 >6 >6 >6 >6 >6 >6 >6 >6 >6 >6
CIG -- -- -- -- -- -- -- -- -- -- -- -- -- --
Cover FEW FEW FEW FEW FEW SKC SKC SKC SKC SKC SKC SKC SKC SKC
FltCat VFR VFR VFR VFR VFR VFR VFR VFR VFR VFR VFR VFR VFR VFR
WX -- -- -- -- -- -- -- -- -- -- -- -- -- --
WDir 300 290 290 290 290 290 290 290 290 290 290 290 290 230
WSpd 12 11 11 11 11 6 6 6 6 6 6 6 6 4
WGst -- 22 22 22 22 -- -- -- -- -- -- -- -- --

Raw TAF
KIAD 181720Z 1818/1924 29011G22KT P6SM FEW250
  FM182200 29006KT P6SM SKC
  FM190600 23004KT P6SM SKC
  FM191800 24008KT P6SM FEW200
  FM192100 20006KT P6SM FEW200


Raw METAR
KIAD 181652Z 30012KT 10SM FEW120 03/M14 A3013 RMK AO2 SLP206 T00281139
KIAD 181552Z 28009KT 10SM FEW120 M01/M14 A3017 RMK AO2 SLP220 T10061144
KIAD 181452Z 30013KT 10SM FEW110 M02/M14 A3019 RMK AO2 SLP226 T10221144 55002

METAR Board
Radar Display
Forecast Discussion

FOR SITUATIONAL AWARENESS. NOT TO BE USED FOR FLIGHT PLANNING PURPOSES.